Time;durP1;ratioP1;P1;durP2;ratioP2;P2;SDS_P1;SDS_P2;PMS_P1;PMS_P2;Temp;Humidity;BMP_temperature;BMP_pressure;BME280_temperature;BME280_humidity;BME280_pressure;Samples;Min_cycle;Max_cycle;Signal;HPM_P1;HPM_P2
2023/01/13 00:01:14;;;;;;;4.35;1.23;;;8.40;99.90;;;;;;6237946;22;20009;-86
2023/01/13 00:04:03;;;;;;;1.40;1.10;;;8.50;99.90;;;;;;6218834;22;20032;-88
2023/01/13 00:06:51;;;;;;;2.22;1.00;;;8.50;99.90;;;;;;6220267;23;20247;-87
2023/01/13 00:09:38;;;;;;;2.70;1.20;;;8.50;99.90;;;;;;6240347;22;20062;-85
2023/01/13 00:12:28;;;;;;;2.50;1.00;;;8.50;99.90;;;;;;6220383;22;20009;-86
2023/01/13 00:15:16;;;;;;;2.85;1.00;;;8.50;99.90;;;;;;6239324;22;20013;-86
2023/01/13 00:18:03;;;;;;;2.30;1.10;;;8.50;99.90;;;;;;6215546;23;20009;-87
2023/01/13 00:21:05;;;;;;;5.18;1.27;;;8.50;99.90;;;;;;6236976;22;20064;-84
2023/01/13 00:23:53;;;;;;;4.32;1.50;;;8.40;99.90;;;;;;6240655;22;20012;-86
2023/01/13 00:26:41;;;;;;;3.25;1.17;;;8.50;99.90;;;;;;6240660;23;20075;-85
2023/01/13 00:29:28;;;;;;;2.13;1.38;;;8.50;99.90;;;;;;6239583;22;20043;-87
2023/01/13 00:32:15;;;;;;;4.00;1.45;;;8.50;99.20;;;;;;6239197;23;20012;-89
2023/01/13 00:35:03;;;;;;;3.05;1.13;;;8.60;93.30;;;;;;6239849;22;20056;-88
2023/01/13 00:37:50;;;;;;;4.05;1.45;;;8.70;72.30;;;;;;6241815;23;20008;-87
2023/01/13 00:40:37;;;;;;;4.32;1.40;;;8.70;54.40;;;;;;6241886;22;20016;-87
2023/01/13 00:43:26;;;;;;;1.45;0.95;;;8.70;51.00;;;;;;6221027;22;20016;-87
2023/01/13 00:46:16;;;;;;;2.95;1.23;;;8.70;49.70;;;;;;6241349;22;20015;-88
2023/01/13 00:49:03;;;;;;;3.20;1.27;;;8.70;52.50;;;;;;6241113;23;20016;-88
2023/01/13 00:51:50;;;;;;;5.82;1.30;;;8.70;49.60;;;;;;6240639;23;20016;-89
2023/01/13 00:54:38;;;;;;;4.55;1.20;;;8.70;41.40;;;;;;6222089;23;20013;-88
2023/01/13 00:57:25;;;;;;;6.18;1.40;;;8.80;35.40;;;;;;6241082;22;20024;-88
2023/01/13 01:00:13;;;;;;;3.83;1.60;;;8.80;25.80;;;;;;6242235;23;20020;-88
2023/01/13 01:03:01;;;;;;;2.63;1.20;;;8.90;14.90;;;;;;6233581;23;20093;-88
2023/01/13 01:05:49;;;;;;;3.08;1.00;;;8.90;5.90;;;;;;6210940;23;20044;-90
2023/01/13 01:08:36;;;;;;;1.85;1.20;;;8.80;9.10;;;;;;6190189;23;20068;-91
2023/01/13 01:11:29;;;;;;;3.60;1.40;;;8.70;14.10;;;;;;6210605;23;20020;-89
2023/01/13 01:14:16;;;;;;;2.92;1.38;;;8.70;23.50;;;;;;6229427;23;20083;-89
2023/01/13 01:17:03;;;;;;;4.20;1.35;;;8.70;25.20;;;;;;6229154;23;20028;-89
2023/01/13 01:19:50;;;;;;;4.32;1.50;;;8.80;23.90;;;;;;6207928;23;20029;-88
2023/01/13 01:22:38;;;;;;;6.45;1.70;;;8.80;17.30;;;;;;6230134;23;20036;-89
2023/01/13 01:25:25;;;;;;;4.30;1.55;;;8.80;18.90;;;;;;6208773;23;20078;-86
2023/01/13 01:28:12;;;;;;;4.47;1.25;;;8.90;14.70;;;;;;6228638;23;20308;-88
2023/01/13 01:31:00;;;;;;;3.55;1.10;;;8.90;11.70;;;;;;6227955;23;20329;-88
2023/01/13 01:33:48;;;;;;;2.85;1.30;;;8.90;14.60;;;;;;6207934;23;20034;-88
2023/01/13 01:36:35;;;;;;;5.35;1.52;;;8.90;9.00;;;;;;6206926;23;20429;-89
2023/01/13 01:39:23;;;;;;;4.47;1.30;;;8.90;13.20;;;;;;6209381;23;20052;-87
2023/01/13 01:45:23;;;;;;;6.25;1.25;;;8.90;15.90;;;;;;6228861;23;20080;-87
2023/01/13 01:48:11;;;;;;;4.75;1.38;;;8.80;41.90;;;;;;6227478;23;20025;-91
2023/01/13 01:50:58;;;;;;;5.55;1.23;;;8.70;91.60;;;;;;6227613;23;20020;-89
2023/01/13 01:53:52;;;;;;;3.08;1.35;;;8.50;99.90;;;;;;6204561;23;20039;-88
2023/01/13 01:56:44;;;;;;;4.25;1.20;;;8.60;99.90;;;;;;6197299;23;20107;-89
2023/01/13 01:59:33;;;;;;;1.55;1.10;;;8.60;99.90;;;;;;6199044;23;20401;-88
2023/01/13 02:02:21;;;;;;;4.22;1.10;;;8.70;99.90;;;;;;6216990;23;20024;-88
2023/01/13 02:05:08;;;;;;;4.78;1.27;;;8.60;99.90;;;;;;6218400;23;20308;-86
2023/01/13 02:07:57;;;;;;;4.40;1.45;;;8.60;99.90;;;;;;6198773;23;20084;-87
2023/01/13 02:10:49;;;;;;;1.35;1.10;;;8.70;99.90;;;;;;6217120;23;20053;-88
2023/01/13 02:13:36;;;;;;;2.42;1.08;;;8.70;99.90;;;;;;6217816;23;20135;-87
2023/01/13 02:16:23;;;;;;;2.95;1.27;;;8.60;99.90;;;;;;6220523;23;20032;-87
2023/01/13 02:19:32;;;;;;;4.60;1.63;;;8.50;99.90;;;;;;6220143;23;20082;-87
2023/01/13 02:22:51;;;;;;;2.45;1.20;;;8.50;99.90;;;;;;6216813;23;20323;-86
2023/01/13 02:26:16;;;;;;;3.65;1.10;;;8.50;99.90;;;;;;6209859;23;20028;-87
2023/01/13 02:33:14;;;;;;;1.98;1.00;;;8.50;99.90;;;;;;6217467;23;20032;-90
2023/01/13 02:36:30;;;;;;;5.93;1.25;;;8.60;99.90;;;;;;6217336;23;20099;-88
2023/01/13 02:39:37;;;;;;;2.30;1.10;;;8.50;99.90;;;;;;6196121;23;20035;-88
2023/01/13 02:45:51;;;;;;;4.65;1.40;;;8.60;99.90;;;;;;6217363;23;20020;-89
2023/01/13 02:48:41;;;;;;;3.03;1.38;;;8.50;99.90;;;;;;6195886;23;20034;-88
2023/01/13 02:51:31;;;;;;;1.90;1.08;;;8.50;99.90;;;;;;6216630;23;20032;-87
2023/01/13 02:54:26;;;;;;;3.00;0.90;;;8.50;99.90;;;;;;6197102;23;20038;-89
2023/01/13 02:57:17;;;;;;;3.88;1.10;;;8.60;99.90;;;;;;6215008;23;20086;-90
2023/01/13 03:00:11;;;;;;;3.55;1.10;;;8.60;99.90;;;;;;6216829;23;20184;-90
2023/01/13 03:03:02;;;;;;;3.20;1.20;;;8.50;99.90;;;;;;6197650;23;20020;-89
2023/01/13 03:06:20;;;;;;;3.95;1.40;;;8.50;99.90;;;;;;6197506;23;20025;-87
2023/01/13 03:09:25;;;;;;;3.17;1.77;;;8.40;99.90;;;;;;6215871;23;20025;-88
2023/01/13 03:12:15;;;;;;;5.60;1.67;;;8.40;99.90;;;;;;6201133;23;20044;-89
2023/01/13 03:15:27;;;;;;;3.20;1.08;;;8.50;99.90;;;;;;6208194;23;20396;-88
2023/01/13 03:18:24;;;;;;;5.75;1.55;;;8.30;99.90;;;;;;6219081;23;20025;-88
2023/01/13 03:21:19;;;;;;;4.53;1.20;;;8.30;99.90;;;;;;6215967;23;20451;-88
2023/01/13 03:24:43;;;;;;;4.22;1.33;;;8.40;99.90;;;;;;6216073;23;20036;-89
2023/01/13 03:27:42;;;;;;;1.60;0.90;;;8.40;99.90;;;;;;6196721;23;20067;-88
2023/01/13 03:30:39;;;;;;;4.68;2.40;;;8.40;99.90;;;;;;6195752;23;20039;-88
2023/01/13 03:33:44;;;;;;;5.32;1.83;;;8.40;99.90;;;;;;6216257;23;20383;-87
2023/01/13 03:36:34;;;;;;;3.45;1.10;;;8.40;99.90;;;;;;6214976;23;20025;-86
2023/01/13 03:39:30;;;;;;;1.52;0.90;;;8.50;99.90;;;;;;6193291;23;20025;-89
2023/01/13 03:42:22;;;;;;;2.42;1.30;;;8.50;99.90;;;;;;6195606;23;20602;-87
2023/01/13 03:45:26;;;;;;;2.40;1.17;;;8.40;99.90;;;;;;6197564;23;20021;-88
2023/01/13 03:48:17;;;;;;;4.00;1.23;;;8.40;99.90;;;;;;6215446;23;20024;-87
2023/01/13 03:51:09;;;;;;;4.40;1.30;;;8.40;99.90;;;;;;6215290;23;20025;-87
2023/01/13 03:54:01;;;;;;;2.58;1.00;;;8.40;99.90;;;;;;6217508;23;20036;-87
2023/01/13 03:56:58;;;;;;;4.07;1.10;;;8.40;99.90;;;;;;6193404;23;20024;-89
2023/01/13 03:59:51;;;;;;;4.60;1.35;;;8.50;99.90;;;;;;6214227;23;20032;-87
2023/01/13 04:03:40;;;;;;;4.93;1.08;;;8.50;99.90;;;;;;6216725;23;20144;-88
2023/01/13 04:06:59;;;;;;;4.22;1.23;;;8.50;99.90;;;;;;6125411;23;20030;-88
2023/01/13 04:10:00;;;;;;;2.70;1.00;;;8.60;99.90;;;;;;6135407;23;20075;-88
2023/01/13 04:13:05;;;;;;;6.03;1.80;;;8.60;99.90;;;;;;6197853;23;20028;-87
2023/01/13 04:15:55;;;;;;;4.18;1.00;;;8.60;99.90;;;;;;6194568;23;20122;-89
2023/01/13 04:18:44;;;;;;;5.13;1.30;;;8.60;99.90;;;;;;6218376;23;20416;-89
2023/01/13 04:21:34;;;;;;;3.45;1.23;;;8.60;99.90;;;;;;6199998;23;20029;-87
2023/01/13 04:24:28;;;;;;;3.15;1.23;;;8.60;99.90;;;;;;6220508;23;20115;-89
2023/01/13 04:27:15;;;;;;;3.13;1.00;;;8.60;99.90;;;;;;6221671;23;20025;-88
2023/01/13 04:30:04;;;;;;;3.40;1.25;;;8.60;99.90;;;;;;6197266;23;20078;-88
2023/01/13 04:32:51;;;;;;;2.35;1.30;;;8.70;99.90;;;;;;6217613;23;20075;-91
2023/01/13 04:35:38;;;;;;;3.20;0.95;;;8.70;99.90;;;;;;6217159;23;20034;-89
2023/01/13 04:38:26;;;;;;;1.60;1.20;;;8.70;99.90;;;;;;6196435;23;20028;-87
2023/01/13 04:41:13;;;;;;;1.75;1.05;;;8.70;99.90;;;;;;6196849;23;20409;-92
2023/01/13 04:44:00;;;;;;;6.07;1.08;;;8.70;99.90;;;;;;6217585;23;20099;-90
2023/01/13 04:46:47;;;;;;;2.58;1.10;;;8.70;99.90;;;;;;6217307;23;20052;-91
2023/01/13 04:49:34;;;;;;;3.00;1.20;;;8.70;99.90;;;;;;6217381;23;20035;-88
2023/01/13 04:52:22;;;;;;;2.13;0.90;;;8.70;99.90;;;;;;6216219;23;20091;-87
2023/01/13 04:55:09;;;;;;;1.55;0.90;;;8.70;99.90;;;;;;6216990;23;20376;-86
2023/01/13 04:58:10;;;;;;;2.78;0.68;;;8.60;99.90;;;;;;6198451;23;20021;-88
2023/01/13 05:00:59;;;;;;;1.48;0.80;;;8.60;99.90;;;;;;6217852;23;20054;-87
2023/01/13 05:04:02;;;;;;;3.58;0.95;;;8.70;99.90;;;;;;6195527;23;20035;-85
2023/01/13 05:07:03;;;;;;;1.85;0.90;;;8.70;99.90;;;;;;6216363;23;20056;-88
2023/01/13 05:09:52;;;;;;;1.13;0.73;;;8.70;99.90;;;;;;6216349;23;20086;-88
2023/01/13 05:18:57;;;;;;;3.05;0.90;;;8.70;99.90;;;;;;6218841;23;20020;-86
2023/01/13 05:27:59;;;;;;;4.55;2.25;;;8.70;99.90;;;;;;6216806;23;20423;-88
2023/01/13 05:30:49;;;;;;;0.90;0.82;;;8.70;99.90;;;;;;6215475;23;20037;-84
2023/01/13 05:33:39;;;;;;;1.73;0.75;;;8.80;99.90;;;;;;6196418;23;20036;-86
2023/01/13 05:36:26;;;;;;;1.55;0.70;;;8.80;99.90;;;;;;6221428;23;20120;-86
2023/01/13 05:39:13;;;;;;;1.05;0.90;;;8.70;99.90;;;;;;6196093;23;20087;-85
2023/01/13 05:45:26;;;;;;;1.52;0.93;;;8.70;99.90;;;;;;6129318;23;20105;-90
2023/01/13 05:48:15;;;;;;;3.13;1.17;;;8.60;99.90;;;;;;6197992;23;20396;-87
2023/01/13 05:51:05;;;;;;;1.05;0.80;;;8.70;99.90;;;;;;6220067;23;20028;-88
2023/01/13 05:53:52;;;;;;;2.03;0.88;;;8.70;99.90;;;;;;6222763;23;20029;-88
2023/01/13 05:56:39;;;;;;;1.88;1.00;;;8.80;99.90;;;;;;6203071;23;20084;-88
2023/01/13 05:59:26;;;;;;;1.00;0.70;;;8.70;99.90;;;;;;6201223;23;20044;-88
2023/01/13 06:02:16;;;;;;;5.75;0.98;;;8.70;99.90;;;;;;6203210;23;20047;-88
2023/01/13 06:05:03;;;;;;;1.60;0.98;;;8.70;99.90;;;;;;6226253;23;20100;-86
2023/01/13 06:07:51;;;;;;;2.35;1.05;;;8.70;99.90;;;;;;6206054;23;20020;-86
2023/01/13 06:10:38;;;;;;;3.30;0.88;;;8.70;99.90;;;;;;6230729;23;20107;-88
2023/01/13 06:13:25;;;;;;;2.22;0.80;;;8.70;99.90;;;;;;6224935;23;20029;-89
2023/01/13 06:16:13;;;;;;;4.15;2.13;;;8.70;99.90;;;;;;6197926;23;20031;-87
2023/01/13 06:19:11;;;;;;;1.17;0.70;;;8.70;99.90;;;;;;6218464;23;20033;-88
2023/01/13 06:22:07;;;;;;;0.80;0.80;;;8.70;99.90;;;;;;6213466;23;20105;-87
2023/01/13 06:29:12;;;;;;;;;;;;;;;;;;;;;
2023/01/13 06:32:56;;;;;;;0.70;0.70;;;8.70;99.90;;;;;;6097689;23;20018;-88
2023/01/13 06:36:25;;;;;;;2.05;0.80;;;8.80;99.90;;;;;;6200607;23;20032;-86
2023/01/13 07:08:17;;;;;;;2.95;0.80;;;8.60;99.90;;;;;;6105295;23;20465;-86
2023/01/13 07:11:08;;;;;;;0.68;0.68;;;8.70;99.90;;;;;;6104467;23;20028;-84
2023/01/13 07:17:23;;;;;;;2.72;0.70;;;8.80;99.90;;;;;;6215429;23;20029;-83
2023/01/13 07:20:11;;;;;;;0.70;0.60;;;8.70;99.90;;;;;;6213826;23;20060;-82
2023/01/13 07:23:00;;;;;;;1.25;1.00;;;8.70;99.90;;;;;;6193683;23;20036;-82
2023/01/13 07:25:48;;;;;;;0.77;0.77;;;8.70;99.90;;;;;;6212168;23;20025;-81
2023/01/13 07:28:38;;;;;;;1.70;0.60;;;8.70;99.90;;;;;;6193922;23;20035;-84
2023/01/13 07:31:26;;;;;;;0.68;0.68;;;8.80;99.90;;;;;;6192935;23;20032;-83
2023/01/13 07:34:19;;;;;;;0.88;0.75;;;8.80;99.90;;;;;;6213601;23;20051;-83
2023/01/13 07:37:07;;;;;;;0.70;0.70;;;8.80;99.90;;;;;;6191915;23;20031;-81
2023/01/13 07:39:57;;;;;;;0.70;0.70;;;8.80;99.90;;;;;;6149949;23;20077;-80
2023/01/13 07:46:15;;;;;;;;;;;;;;;;;;;;;
2023/01/13 07:49:26;;;;;;;3.78;0.75;;;8.80;99.90;;;;;;6215205;23;20017;-83
2023/01/13 07:52:39;;;;;;;0.70;0.70;;;8.80;99.90;;;;;;6191414;23;20039;-85
2023/01/13 07:55:52;;;;;;;0.88;0.88;;;8.90;99.90;;;;;;6094657;23;20438;-83
2023/01/13 08:07:18;;;;;;;1.38;0.80;;;8.90;99.90;;;;;;5910681;24;20097;-84
2023/01/13 08:10:15;;;;;;;1.95;0.70;;;9.00;99.90;;;;;;5953741;23;20024;-86
2023/01/13 08:13:33;;;;;;;1.60;0.80;;;9.00;99.90;;;;;;5997238;23;20042;-82
2023/01/13 08:16:35;;;;;;;2.05;0.73;;;9.00;99.90;;;;;;5996860;23;20491;-85
2023/01/13 08:21:02;;;;;;;;;;;;;;;;;;;;;
2023/01/13 08:37:08;;;;;;;1.10;0.95;;;8.10;99.90;;;;;;5843720;24;20177;-86
2023/01/13 08:41:10;;;;;;;;;;;;;;;;;;;;;
2023/01/13 09:13:51;;;;;;;;;;;;;;;;;;;;;
2023/01/13 09:17:19;;;;;;;;;;;;;;;;;;;;;
2023/01/13 09:28:21;;;;;;;2.15;1.08;;;7.50;99.90;;;;;;6129230;23;20030;-83
2023/01/13 09:31:18;;;;;;;1.40;1.10;;;7.40;99.90;;;;;;6113134;23;20030;-83
2023/01/13 09:35:08;;;;;;;1.77;0.90;;;7.30;99.90;;;;;;6115086;23;20349;-82
2023/01/13 10:24:37;;;;;;;;;;;;;;;;;;;;;
2023/01/13 10:27:48;;;;;;;0.57;0.57;;;8.70;99.90;;;;;;6132715;23;20041;-84
2023/01/13 10:35:50;;;;;;;;;;;;;;;;;;;;;
2023/01/13 10:39:18;;;;;;;2.70;0.70;;;10.90;99.90;;;;;;5990880;24;20032;-84
2023/01/13 10:43:15;;;;;;;;;;;;;;;;;;;;;
2023/01/13 10:46:20;;;;;;;1.23;0.77;;;9.70;99.90;;;;;;6046578;23;20462;-84
2023/01/13 10:49:32;;;;;;;0.60;0.60;;;9.10;99.90;;;;;;6043965;23;20031;-84
2023/01/13 10:52:38;;;;;;;1.65;0.80;;;8.60;99.90;;;;;;6045655;23;20420;-84
2023/01/13 11:00:14;;;;;;;;;;;;;;;;;;;;;
2023/01/13 11:08:21;;;;;;;;;;;;;;;;;;;;;
2023/01/13 11:24:50;;;;;;;;;;;;;;;;;;;;;
2023/01/13 11:29:43;;;;;;;1.67;1.10;;;5.90;99.90;;;;;;5929262;24;20137;-84
2023/01/13 11:36:26;;;;;;;2.03;1.00;;;5.80;99.90;;;;;;5905196;24;20016;-88
2023/01/13 11:40:21;;;;;;;2.20;0.82;;;5.70;24.60;;;;;;5954286;24;20051;-86
2023/01/13 12:08:41;;;;;;;2.03;1.00;;;6.10;99.90;;;;;;5008453;28;20052;-85
2023/01/13 12:15:02;;;;;;;;;;;6.40;99.90;;;;;;5165748;27;20374;-86
2023/01/13 12:18:04;;;;;;;2.65;2.05;;;6.50;99.90;;;;;;5169331;27;19994;-87
2023/01/13 12:21:12;;;;;;;1.67;1.13;;;7.50;91.30;;;;;;5169427;27;20072;-83
2023/01/13 12:24:20;;;;;;;2.95;1.02;;;9.10;99.90;;;;;;5152632;27;20300;-85
2023/01/13 12:27:24;;;;;;;4.70;1.40;;;9.90;99.90;;;;;;5150589;27;20045;-82
2023/01/13 12:30:35;;;;;;;2.25;0.95;;;10.40;99.90;;;;;;5165513;27;20050;-82
2023/01/13 12:33:42;;;;;;;3.72;1.20;;;10.30;99.90;;;;;;5166973;27;20053;-83
2023/01/13 12:36:57;;;;;;;4.05;1.10;;;10.70;99.90;;;;;;5169278;27;20074;-83
2023/01/13 12:39:57;;;;;;;3.22;1.20;;;10.70;1.00;;;;;;5167444;27;20050;-82
2023/01/13 12:46:22;;;;;;;6.05;1.42;;;9.80;1.00;;;;;;5141451;27;20336;-84
2023/01/13 12:49:22;;;;;;;6.75;1.42;;;10.20;1.00;;;;;;5141857;27;20057;-82
2023/01/13 12:52:13;;;;;;;8.43;1.67;;;10.20;1.00;;;;;;5149476;27;20059;-85
2023/01/13 12:55:08;;;;;;;10.60;1.90;;;10.30;1.00;;;;;;5150963;27;20039;-84
2023/01/13 12:58:12;;;;;;;7.47;1.88;;;10.80;99.90;;;;;;5139885;27;20039;-83
2023/01/13 13:01:13;;;;;;;4.57;1.42;;;11.20;99.90;;;;;;5144793;27;20049;-85
2023/01/13 13:04:39;;;;;;;4.72;1.63;;;11.90;99.90;;;;;;5154505;27;20108;-85
2023/01/13 13:07:40;;;;;;;8.05;1.92;;;12.00;99.90;;;;;;5133352;27;20489;-84
2023/01/13 13:10:31;;;;;;;7.10;1.80;;;12.30;99.90;;;;;;5159271;27;20151;-85
2023/01/13 13:13:46;;;;;;;7.35;1.80;;;12.30;99.90;;;;;;5137514;27;20200;-85
2023/01/13 13:16:49;;;;;;;6.43;1.73;;;12.30;99.90;;;;;;5124133;27;20057;-86
2023/01/13 13:19:41;;;;;;;6.70;1.58;;;12.60;99.90;;;;;;5142536;27;20061;-86
2023/01/13 13:22:43;;;;;;;8.52;1.90;;;12.40;99.90;;;;;;5160670;27;20039;-86
2023/01/13 13:25:31;;;;;;;;;;;12.40;99.90;;;;;;5147916;27;20066;-84
2023/01/13 13:28:22;;;;;;;6.35;1.63;;;12.20;99.90;;;;;;5153110;27;19926;-83
2023/01/13 13:31:32;;;;;;;6.55;1.92;;;12.10;99.90;;;;;;5149530;27;20074;-84
2023/01/13 13:34:22;;;;;;;6.88;2.03;;;11.70;99.90;;;;;;5145906;27;20092;-84
2023/01/13 13:37:24;;;;;;;6.43;2.03;;;11.60;99.90;;;;;;5143641;27;20099;-83
2023/01/13 13:46:46;;;;;;;5.90;1.48;;;11.20;99.90;;;;;;5156644;27;20050;-85
2023/01/13 13:49:40;;;;;;;8.15;2.20;;;11.40;99.90;;;;;;5154676;27;20050;-83
2023/01/13 13:52:59;;;;;;;11.82;2.00;;;10.20;99.90;;;;;;5136727;27;20046;-82
2023/01/13 13:56:02;;;;;;;7.25;2.35;;;8.80;99.90;;;;;;5155805;27;20103;-81
2023/01/13 13:58:52;;;;;;;7.70;2.38;;;8.30;99.90;;;;;;5155844;27;20242;-86
2023/01/13 14:01:43;;;;;;;12.00;3.28;;;8.10;99.90;;;;;;5153620;27;20035;-85
2023/01/13 14:04:37;;;;;;;7.57;2.13;;;8.10;99.90;;;;;;5155963;27;20402;-83
2023/01/13 14:07:26;;;;;;;6.57;1.77;;;8.50;1.00;;;;;;5133296;27;20047;-81
2023/01/13 14:10:27;;;;;;;3.40;1.48;;;8.60;1.00;;;;;;5151937;27;20039;-87
2023/01/13 14:13:21;;;;;;;5.28;1.65;;;8.40;1.00;;;;;;5132239;27;20033;-81
2023/01/13 14:16:18;;;;;;;5.55;1.83;;;9.40;1.00;;;;;;5154844;27;20117;-81
2023/01/13 14:19:21;;;;;;;6.05;1.70;;;9.70;99.90;;;;;;5139961;27;20057;-81
2023/01/13 14:22:15;;;;;;;6.53;1.50;;;8.70;99.90;;;;;;5151499;27;20070;-84
2023/01/13 14:25:40;;;;;;;6.10;1.63;;;8.30;1.00;;;;;;5148996;27;20047;-82
2023/01/13 14:28:34;;;;;;;9.20;1.65;;;7.70;1.00;;;;;;5150375;27;20038;-83
2023/01/13 14:31:33;;;;;;;8.30;1.83;;;7.30;1.00;;;;;;5153217;27;20136;-83
2023/01/13 14:34:22;;;;;;;8.88;2.72;;;7.00;99.90;;;;;;5139416;27;20051;-82
2023/01/13 14:37:40;;;;;;;8.90;1.90;;;6.90;99.90;;;;;;5152641;27;20054;-82
2023/01/13 14:40:43;;;;;;;7.13;2.17;;;6.70;99.90;;;;;;5136876;27;20482;-85
2023/01/13 14:43:31;;;;;;;3.05;1.80;;;6.50;1.00;;;;;;5153255;27;20054;-83
2023/01/13 14:46:21;;;;;;;9.40;2.80;;;6.30;56.10;;;;;;5134353;27;20035;-86
2023/01/13 14:49:29;;;;;;;13.38;3.20;;;6.10;99.90;;;;;;5157427;27;20034;-83
2023/01/13 14:52:23;;;;;;;11.70;2.70;;;6.10;1.00;;;;;;5139298;27;20050;-83
2023/01/13 14:55:29;;;;;;;6.18;2.55;;;6.10;38.00;;;;;;5133414;27;20058;-84
2023/01/13 14:58:34;;;;;;;9.20;2.40;;;6.30;99.90;;;;;;5154215;27;20471;-83
2023/01/13 15:01:35;;;;;;;9.30;1.85;;;7.00;99.90;;;;;;5147953;27;20494;-83
2023/01/13 15:04:26;;;;;;;5.55;1.75;;;7.90;1.00;;;;;;5135115;27;20572;-86
2023/01/13 15:07:24;;;;;;;9.18;2.55;;;8.50;99.90;;;;;;5152327;27;20043;-84
2023/01/13 15:10:19;;;;;;;9.70;1.80;;;9.00;1.00;;;;;;5109176;28;20051;-84
2023/01/13 15:13:34;;;;;;;4.93;1.83;;;8.70;99.90;;;;;;5146952;27;20042;-83
2023/01/13 15:16:24;;;;;;;11.13;2.25;;;8.40;99.90;;;;;;5139858;27;20050;-87
2023/01/13 15:19:11;;;;;;;5.78;1.63;;;8.00;99.90;;;;;;5148342;27;20391;-82
2023/01/13 15:22:00;;;;;;;10.85;2.30;;;7.70;99.90;;;;;;5144448;27;20099;-83
2023/01/13 15:24:47;;;;;;;10.50;2.80;;;7.60;99.90;;;;;;5154216;27;20145;-83
2023/01/13 15:27:36;;;;;;;9.60;3.08;;;7.40;99.90;;;;;;5148002;27;20175;-84
2023/01/13 15:30:28;;;;;;;9.82;2.60;;;6.90;99.90;;;;;;5134054;27;20068;-84
2023/01/13 15:33:16;;;;;;;14.10;4.63;;;6.50;99.90;;;;;;5152616;27;20026;-84
2023/01/13 15:36:24;;;;;;;8.98;3.05;;;6.20;1.00;;;;;;5155870;27;20047;-85
2023/01/13 15:39:12;;;;;;;13.85;4.03;;;6.10;1.00;;;;;;5131054;27;20375;-84
2023/01/13 15:48:31;;;;;;;15.48;3.72;;;5.60;99.90;;;;;;5151750;27;20049;-84
2023/01/13 15:51:20;;;;;;;16.25;3.92;;;5.40;99.90;;;;;;5146999;27;20123;-83
2023/01/13 15:54:10;;;;;;;10.90;4.10;;;5.30;1.00;;;;;;5131860;27;20122;-83
2023/01/13 15:56:58;;;;;;;8.43;3.03;;;5.30;29.30;;;;;;5147144;27;20054;-85
2023/01/13 15:59:45;;;;;;;10.32;2.80;;;5.20;99.90;;;;;;5152975;27;20088;-83
2023/01/13 16:02:33;;;;;;;12.05;2.35;;;5.20;99.90;;;;;;5152414;27;20142;-83
2023/01/13 16:05:22;;;;;;;7.57;2.53;;;5.20;99.90;;;;;;5149028;27;20122;-83
2023/01/13 16:08:17;;;;;;;9.95;2.40;;;5.20;99.90;;;;;;5150779;27;20043;-84
2023/01/13 16:11:12;;;;;;;10.82;2.75;;;5.20;99.90;;;;;;5154606;27;20053;-84
2023/01/13 16:14:02;;;;;;;16.80;3.83;;;5.30;99.90;;;;;;5136950;27;20577;-83
2023/01/13 16:16:52;;;;;;;26.10;9.93;;;5.30;71.70;;;;;;5151902;27;20047;-83
2023/01/13 16:19:48;;;;;;;9.98;2.97;;;5.30;1.00;;;;;;5152680;27;20381;-84
2023/01/13 16:22:35;;;;;;;15.90;3.55;;;5.30;1.00;;;;;;5152778;27;20054;-85
2023/01/13 16:25:28;;;;;;;18.65;3.72;;;5.30;99.90;;;;;;5148431;27;20047;-84
2023/01/13 16:28:23;;;;;;;;;;;5.30;99.90;;;;;;5147356;27;20046;-86
2023/01/13 16:31:25;;;;;;;11.52;3.67;;;5.30;99.90;;;;;;5134470;27;19919;-84
2023/01/13 16:34:21;;;;;;;10.95;4.60;;;5.20;99.90;;;;;;5152948;27;20043;-85
2023/01/13 16:37:28;;;;;;;17.25;4.00;;;5.10;99.90;;;;;;5139378;27;20150;-90
2023/01/13 16:40:25;;;;;;;12.82;5.15;;;5.10;99.90;;;;;;5153493;27;20078;-87
2023/01/13 16:43:15;;;;;;;16.42;5.90;;;5.10;99.90;;;;;;5136111;27;20058;-90
2023/01/13 16:46:42;;;;;;;20.65;7.22;;;5.10;99.90;;;;;;5136014;27;20433;-90
2023/01/13 16:49:33;;;;;;;17.27;5.85;;;5.00;99.90;;;;;;5074457;28;20727;-90
2023/01/13 16:52:23;;;;;;;16.90;6.38;;;5.10;99.90;;;;;;5154864;27;20489;-88
2023/01/13 16:55:17;;;;;;;16.20;4.70;;;5.00;99.90;;;;;;5140170;27;20046;-89
2023/01/13 16:58:16;;;;;;;17.65;5.00;;;5.10;99.90;;;;;;5152047;27;20047;-90
2023/01/13 17:01:45;;;;;;;16.77;5.53;;;5.20;98.00;;;;;;5163508;27;20059;-91
2023/01/13 17:04:33;;;;;;;17.38;4.40;;;5.20;41.60;;;;;;5138153;27;20049;-88
2023/01/13 17:07:28;;;;;;;40.15;10.27;;;5.30;10.00;;;;;;5152837;27;20042;-88
2023/01/13 17:10:19;;;;;;;20.85;6.28;;;5.40;1.00;;;;;;5160829;27;20035;-90
2023/01/13 17:13:13;;;;;;;15.10;4.85;;;5.50;1.00;;;;;;5159263;27;20042;-90
2023/01/13 17:16:04;;;;;;;16.38;4.18;;;5.60;1.00;;;;;;5137162;27;20050;-89
2023/01/13 17:18:53;;;;;;;9.75;3.58;;;5.70;1.00;;;;;;5157738;27;20058;-89
2023/01/13 17:25:53;;;;;;;11.35;3.45;;;5.80;1.00;;;;;;5070760;28;20041;-89
2023/01/13 17:28:45;;;;;;;12.90;3.58;;;5.80;1.00;;;;;;5067222;28;20059;-89
2023/01/13 17:31:37;;;;;;;10.80;3.40;;;5.80;1.00;;;;;;5153105;27;20112;-88
2023/01/13 17:34:25;;;;;;;10.23;3.58;;;5.70;1.00;;;;;;5130464;27;20036;-88
2023/01/13 17:37:13;;;;;;;12.73;3.70;;;5.70;42.70;;;;;;5153807;27;20050;-89
2023/01/13 17:40:01;;;;;;;12.13;2.85;;;5.70;99.90;;;;;;5137506;27;20084;-85
2023/01/13 17:42:49;;;;;;;6.75;2.33;;;5.70;99.90;;;;;;5137273;27;20038;-91
2023/01/13 17:45:40;;;;;;;17.00;4.00;;;5.60;99.90;;;;;;5136688;27;20034;-90
2023/01/13 17:48:28;;;;;;;9.80;3.08;;;5.60;99.90;;;;;;5161892;27;20099;-91
2023/01/13 17:51:16;;;;;;;10.35;3.10;;;5.60;99.90;;;;;;5137213;27;20026;-90
2023/01/13 17:54:04;;;;;;;8.77;2.40;;;5.60;99.90;;;;;;5159190;27;20046;-89
2023/01/13 17:56:55;;;;;;;12.80;2.75;;;5.60;99.90;;;;;;5147869;27;20042;-88
2023/01/13 17:59:45;;;;;;;7.32;2.40;;;5.60;99.90;;;;;;5158275;27;20096;-90
2023/01/13 18:02:35;;;;;;;3.80;1.58;;;5.50;99.90;;;;;;5137489;27;20039;-89
2023/01/13 18:05:24;;;;;;;4.88;1.42;;;5.40;99.90;;;;;;5142424;27;20095;-88
2023/01/13 18:08:14;;;;;;;7.05;1.80;;;5.20;98.20;;;;;;5142400;27;20467;-87
2023/01/13 18:11:05;;;;;;;4.30;1.95;;;5.10;57.70;;;;;;5137764;27;20530;-89
2023/01/13 18:13:59;;;;;;;3.33;2.17;;;4.90;43.80;;;;;;5116592;27;20043;-91
2023/01/13 18:28:49;;;;;;;2.95;1.40;;;4.60;99.90;;;;;;5155633;27;20054;-88
2023/01/13 18:31:36;;;;;;;4.45;2.05;;;4.50;99.90;;;;;;5147816;27;20047;-87
2023/01/13 18:34:25;;;;;;;5.82;2.20;;;4.40;99.90;;;;;;5142344;27;20047;-88
2023/01/13 18:37:15;;;;;;;3.67;2.22;;;4.40;99.90;;;;;;5148609;27;20059;-85
2023/01/13 18:40:05;;;;;;;5.93;1.95;;;4.30;99.90;;;;;;5155819;27;20703;-86
2023/01/13 18:42:57;;;;;;;6.35;2.17;;;4.20;99.90;;;;;;5168431;27;20047;-87
2023/01/13 18:45:51;;;;;;;4.53;2.20;;;4.10;99.90;;;;;;5153316;27;20035;-88
2023/01/13 18:48:53;;;;;;;6.03;2.65;;;4.00;1.00;;;;;;5157445;27;20057;-85
2023/01/13 18:51:48;;;;;;;5.57;2.33;;;4.00;1.00;;;;;;5158100;27;20529;-88
2023/01/13 18:54:35;;;;;;;4.85;2.15;;;4.00;1.00;;;;;;5164805;27;20050;-87
2023/01/13 18:57:23;;;;;;;7.45;2.72;;;3.90;1.00;;;;;;5173252;27;20038;-87
2023/01/13 19:00:15;;;;;;;7.40;2.30;;;3.80;99.90;;;;;;5164197;27;20046;-87
2023/01/13 19:03:04;;;;;;;6.50;2.53;;;3.80;99.90;;;;;;5137659;27;20035;-87
2023/01/13 19:05:51;;;;;;;8.35;2.88;;;3.80;99.90;;;;;;5138882;27;21657;-86
2023/01/13 19:08:39;;;;;;;8.20;3.53;;;3.70;99.90;;;;;;5170607;27;20030;-88
2023/01/13 19:11:29;;;;;;;4.60;2.55;;;3.70;99.90;;;;;;5165291;27;20058;-86
2023/01/13 19:14:33;;;;;;;6.90;2.05;;;3.70;99.90;;;;;;5166224;27;20090;-87
2023/01/13 19:17:22;;;;;;;5.65;2.45;;;3.70;99.90;;;;;;5150371;27;20062;-87
2023/01/13 19:20:11;;;;;;;7.47;2.50;;;3.70;1.00;;;;;;5164071;27;20058;-88
2023/01/13 19:23:02;;;;;;;8.00;2.95;;;3.60;1.00;;;;;;5153457;27;20066;-87
2023/01/13 19:25:50;;;;;;;9.02;3.10;;;3.60;1.00;;;;;;5163132;27;20061;-87
2023/01/13 19:28:39;;;;;;;7.50;4.03;;;3.70;1.00;;;;;;5152417;27;20064;-86
2023/01/13 19:31:30;;;;;;;8.07;2.78;;;3.70;1.00;;;;;;5167819;27;20474;-86
2023/01/13 19:34:19;;;;;;;8.95;2.72;;;3.70;1.00;;;;;;5152282;27;20054;-87
2023/01/13 19:37:06;;;;;;;8.18;2.35;;;3.60;1.00;;;;;;5152971;27;20042;-87
2023/01/13 19:39:55;;;;;;;4.25;2.00;;;3.50;28.90;;;;;;5170710;27;20043;-84
2023/01/13 19:45:52;;;;;;;3.67;2.95;;;3.30;99.90;;;;;;5173236;27;20106;-85
2023/01/13 19:48:41;;;;;;;5.38;2.13;;;3.40;1.00;;;;;;5161998;27;20042;-86
2023/01/13 19:51:33;;;;;;;6.95;2.53;;;3.40;55.30;;;;;;5163115;27;20023;-86
2023/01/13 19:54:26;;;;;;;6.88;2.30;;;3.40;99.90;;;;;;5176576;27;20035;-86
2023/01/13 19:57:14;;;;;;;6.50;2.70;;;3.30;99.90;;;;;;5162316;27;20023;-87
2023/01/13 20:00:04;;;;;;;7.18;3.10;;;3.30;99.90;;;;;;5163222;27;20023;-88
2023/01/13 20:02:54;;;;;;;6.15;2.60;;;3.30;99.90;;;;;;5155886;27;20035;-86
2023/01/13 20:05:42;;;;;;;6.53;2.47;;;3.20;58.90;;;;;;5168359;27;20105;-87
2023/01/13 20:08:31;;;;;;;7.43;2.92;;;3.20;99.90;;;;;;5168773;27;20487;-88
2023/01/13 20:11:30;;;;;;;7.30;3.33;;;3.30;99.90;;;;;;5149285;27;20050;-88
2023/01/13 20:14:19;;;;;;;13.98;4.20;;;3.30;1.00;;;;;;5173224;27;20069;-86